createdAt,value
2019-04-07T00:09:12.537Z,88.26
2019-04-07T00:19:12.497Z,88.97
2019-04-07T00:29:12.705Z,89.76
2019-04-07T00:39:12.572Z,89.85
2019-04-07T00:49:13.237Z,89.56
2019-04-07T00:59:12.520Z,89.71
2019-04-07T01:09:12.550Z,89.03
2019-04-07T01:19:12.520Z,89.56
2019-04-07T01:29:12.479Z,90.44
2019-04-07T01:39:12.978Z,91.53
2019-04-07T01:49:12.916Z,91.02
2019-04-07T01:59:12.561Z,91.09
2019-04-07T02:09:12.566Z,91.94
2019-04-07T02:19:12.538Z,91.61
2019-04-07T02:29:12.631Z,92.10
2019-04-07T02:39:13.116Z,92.60
2019-04-07T02:49:12.518Z,93.00
2019-04-07T02:59:12.990Z,93.54
2019-04-07T03:09:12.870Z,93.91
2019-04-07T03:19:13.164Z,94.21
2019-04-07T03:29:12.550Z,94.59
2019-04-07T03:39:12.560Z,94.96
2019-04-07T03:49:13.435Z,95.47
2019-04-07T03:59:12.979Z,95.61
2019-04-07T04:09:13.874Z,95.20
2019-04-07T04:19:13.063Z,95.88
2019-04-07T04:29:12.698Z,96.22
2019-04-07T04:39:13.063Z,96.30
2019-04-07T04:49:12.533Z,96.21
2019-04-07T04:59:12.823Z,96.57
2019-04-07T05:09:13.320Z,96.67
2019-04-07T05:19:12.593Z,96.36
2019-04-07T05:29:12.510Z,96.17
2019-04-07T05:39:13.343Z,95.58
2019-04-07T05:49:15.648Z,95.62
2019-04-07T05:59:13.856Z,95.03
2019-04-07T06:09:12.511Z,93.27
2019-04-07T06:19:12.533Z,90.28
2019-04-07T06:29:12.467Z,86.77
2019-04-07T06:39:13.563Z,83.92
2019-04-07T06:49:13.756Z,79.03
2019-04-07T06:59:15.338Z,76.04
2019-04-07T07:09:14.095Z,74.89
2019-04-07T07:19:12.998Z,73.87
2019-04-07T07:29:14.669Z,71.64
2019-04-07T07:39:13.524Z,70.24
2019-04-07T07:49:12.500Z,67.37
2019-04-07T07:59:13.425Z,62.97
2019-04-07T08:09:15.225Z,59.13
2019-04-07T08:19:12.541Z,59.53
2019-04-07T08:29:13.019Z,58.91
2019-04-07T08:39:21.484Z,56.01
2019-04-07T08:49:12.771Z,56.07
2019-04-07T08:59:16.201Z,51.84
2019-04-07T09:09:12.562Z,49.35
2019-04-07T09:19:12.534Z,45.62
2019-04-07T09:29:12.765Z,44.15
2019-04-07T09:39:13.197Z,43.30
2019-04-07T09:49:12.529Z,43.57
2019-04-07T09:59:16.778Z,42.97
2019-04-07T10:09:12.695Z,42.22
2019-04-07T10:19:13.086Z,42.42
2019-04-07T10:29:12.544Z,41.15
2019-04-07T10:39:13.039Z,40.98
2019-04-07T10:49:12.540Z,41.28
2019-04-07T10:59:12.634Z,41.98
2019-04-07T11:09:13.206Z,43.29
2019-04-07T11:19:12.964Z,43.07
2019-04-07T11:29:13.198Z,43.27
2019-04-07T11:39:13.502Z,43.71
2019-04-07T11:49:13.392Z,43.81
2019-04-07T11:59:13.376Z,42.18
2019-04-07T12:09:13.090Z,41.07
2019-04-07T12:19:12.688Z,41.25
2019-04-07T12:29:12.601Z,39.98
2019-04-07T12:39:16.233Z,40.46
2019-04-07T12:49:13.281Z,39.14
2019-04-07T12:59:15.850Z,38.94
2019-04-07T13:09:12.578Z,37.21
2019-04-07T13:19:14.084Z,37.11
2019-04-07T13:29:12.938Z,37.49
2019-04-07T13:39:12.619Z,37.93
2019-04-07T13:49:12.819Z,36.85
2019-04-07T13:59:13.815Z,35.37
2019-04-07T14:09:12.592Z,35.88
2019-04-07T14:19:13.432Z,36.27
2019-04-07T14:29:13.157Z,34.37
2019-04-07T14:39:12.827Z,35.76
2019-04-07T14:49:15.580Z,34.28
2019-04-07T14:59:12.897Z,33.58
2019-04-07T15:09:13.318Z,33.91
2019-04-07T15:19:13.672Z,33.34
2019-04-07T15:29:12.685Z,32.77
2019-04-07T15:39:12.942Z,31.12
2019-04-07T15:49:12.716Z,33.46
2019-04-07T15:59:12.600Z,32.99
2019-04-07T16:09:22.378Z,33.17
2019-04-07T16:19:18.757Z,33.44
2019-04-07T16:29:15.498Z,35.17
2019-04-07T16:39:13.536Z,36.70
2019-04-07T16:49:13.668Z,37.79
2019-04-07T16:59:13.472Z,38.62
2019-04-07T17:09:13.237Z,38.45
2019-04-07T17:19:13.136Z,38.92
2019-04-07T17:29:17.148Z,39.47
2019-04-07T17:39:13.250Z,40.15
2019-04-07T17:49:13.519Z,40.56
2019-04-07T17:59:15.492Z,40.48
2019-04-07T18:09:15.020Z,40.67
2019-04-07T18:19:14.137Z,41.38
2019-04-07T18:29:13.544Z,42.04
2019-04-07T18:39:15.942Z,44.23
2019-04-07T18:49:12.769Z,47.50
2019-04-07T18:59:12.932Z,50.70
2019-04-07T19:09:12.608Z,51.80
2019-04-07T19:19:12.739Z,52.56
2019-04-07T19:29:12.684Z,55.08
2019-04-07T19:39:12.662Z,56.05
2019-04-07T19:49:15.324Z,57.40
2019-04-07T19:59:12.772Z,53.71
2019-04-07T20:09:12.801Z,60.69
2019-04-07T20:19:13.043Z,68.32
2019-04-07T20:29:12.647Z,71.97
2019-04-07T20:39:12.698Z,73.49
2019-04-07T20:49:13.633Z,75.74
2019-04-07T20:59:12.643Z,77.88
2019-04-07T21:09:14.079Z,78.91
2019-04-07T21:19:12.629Z,80.02
2019-04-07T21:29:12.932Z,80.68
2019-04-07T21:39:12.938Z,80.58
2019-04-07T21:49:12.647Z,82.00
2019-04-07T21:59:12.874Z,82.40
2019-04-07T22:09:14.711Z,82.70
2019-04-07T22:19:15.327Z,83.49
2019-04-07T22:29:12.702Z,84.38
2019-04-07T22:39:12.687Z,85.04
2019-04-07T22:49:13.497Z,85.56
2019-04-07T22:59:12.806Z,86.87
2019-04-07T23:09:13.438Z,87.79
2019-04-07T23:19:12.575Z,87.88
2019-04-07T23:29:12.687Z,89.05
2019-04-07T23:39:13.122Z,89.23
2019-04-07T23:49:13.131Z,89.82
2019-04-07T23:59:12.691Z,90.57
